sensor_id;sensor_type;location;lat;lon;timestamp;P1;durP1;ratioP1;P2;durP2;ratioP2
78563;SDS011;67856;47.754;19.088;2023-06-26T00:00:38;2.30;;;2.10;;
78563;SDS011;67856;47.754;19.088;2023-06-26T00:03:41;2.10;;;1.90;;
78563;SDS011;67856;47.754;19.088;2023-06-26T00:06:44;2.10;;;1.90;;
78563;SDS011;67856;47.754;19.088;2023-06-26T00:09:46;2.40;;;2.20;;
78563;SDS011;67856;47.754;19.088;2023-06-26T00:12:49;2.47;;;2.28;;
78563;SDS011;67856;47.754;19.088;2023-06-26T00:15:51;2.37;;;2.17;;
78563;SDS011;67856;47.754;19.088;2023-06-26T00:18:54;2.70;;;2.23;;
78563;SDS011;67856;47.754;19.088;2023-06-26T00:21:56;2.28;;;2.08;;
78563;SDS011;67856;47.754;19.088;2023-06-26T00:24:58;2.30;;;2.10;;
78563;SDS011;67856;47.754;19.088;2023-06-26T00:28:01;2.70;;;2.50;;
78563;SDS011;67856;47.754;19.088;2023-06-26T00:31:04;3.53;;;2.10;;
78563;SDS011;67856;47.754;19.088;2023-06-26T00:34:07;2.77;;;2.47;;
78563;SDS011;67856;47.754;19.088;2023-06-26T00:37:09;2.67;;;2.47;;
78563;SDS011;67856;47.754;19.088;2023-06-26T00:40:12;2.72;;;2.53;;
78563;SDS011;67856;47.754;19.088;2023-06-26T00:43:14;2.72;;;2.53;;
78563;SDS011;67856;47.754;19.088;2023-06-26T00:46:17;2.27;;;2.07;;
78563;SDS011;67856;47.754;19.088;2023-06-26T00:49:20;3.57;;;2.73;;
78563;SDS011;67856;47.754;19.088;2023-06-26T00:52:22;2.40;;;2.20;;
78563;SDS011;67856;47.754;19.088;2023-06-26T00:55:26;2.58;;;2.38;;
78563;SDS011;67856;47.754;19.088;2023-06-26T00:58:29;2.70;;;2.50;;
78563;SDS011;67856;47.754;19.088;2023-06-26T01:01:32;3.20;;;2.80;;
78563;SDS011;67856;47.754;19.088;2023-06-26T01:04:34;2.40;;;2.17;;
78563;SDS011;67856;47.754;19.088;2023-06-26T01:07:36;2.58;;;2.38;;
78563;SDS011;67856;47.754;19.088;2023-06-26T01:10:39;2.97;;;2.65;;
78563;SDS011;67856;47.754;19.088;2023-06-26T01:13:42;2.63;;;2.42;;
78563;SDS011;67856;47.754;19.088;2023-06-26T01:16:47;2.55;;;2.35;;
78563;SDS011;67856;47.754;19.088;2023-06-26T01:19:51;2.70;;;2.50;;
78563;SDS011;67856;47.754;19.088;2023-06-26T01:26:20;2.35;;;2.15;;
78563;SDS011;67856;47.754;19.088;2023-06-26T01:29:23;2.70;;;2.47;;
78563;SDS011;67856;47.754;19.088;2023-06-26T01:32:26;3.07;;;2.77;;
78563;SDS011;67856;47.754;19.088;2023-06-26T01:35:30;2.30;;;2.10;;
78563;SDS011;67856;47.754;19.088;2023-06-26T01:38:33;3.30;;;2.97;;
78563;SDS011;67856;47.754;19.088;2023-06-26T01:41:36;2.45;;;2.25;;
78563;SDS011;67856;47.754;19.088;2023-06-26T01:44:41;2.55;;;2.35;;
78563;SDS011;67856;47.754;19.088;2023-06-26T01:47:47;2.30;;;2.10;;
78563;SDS011;67856;47.754;19.088;2023-06-26T01:50:52;2.60;;;2.40;;
78563;SDS011;67856;47.754;19.088;2023-06-26T01:53:55;2.42;;;2.03;;
78563;SDS011;67856;47.754;19.088;2023-06-26T01:56:59;2.33;;;2.13;;
78563;SDS011;67856;47.754;19.088;2023-06-26T02:00:02;2.35;;;2.00;;
78563;SDS011;67856;47.754;19.088;2023-06-26T02:03:14;2.13;;;1.90;;
78563;SDS011;67856;47.754;19.088;2023-06-26T02:06:19;3.80;;;2.30;;
78563;SDS011;67856;47.754;19.088;2023-06-26T02:09:21;2.70;;;2.50;;
78563;SDS011;67856;47.754;19.088;2023-06-26T02:12:23;2.65;;;2.45;;
78563;SDS011;67856;47.754;19.088;2023-06-26T02:15:26;2.90;;;2.60;;
78563;SDS011;67856;47.754;19.088;2023-06-26T02:18:28;2.83;;;2.30;;
78563;SDS011;67856;47.754;19.088;2023-06-26T02:21:31;2.27;;;2.07;;
78563;SDS011;67856;47.754;19.088;2023-06-26T02:24:33;2.55;;;2.35;;
78563;SDS011;67856;47.754;19.088;2023-06-26T02:27:37;2.50;;;2.30;;
78563;SDS011;67856;47.754;19.088;2023-06-26T02:30:40;2.25;;;2.05;;
78563;SDS011;67856;47.754;19.088;2023-06-26T02:33:43;2.27;;;2.03;;
78563;SDS011;67856;47.754;19.088;2023-06-26T02:36:47;2.57;;;2.37;;
78563;SDS011;67856;47.754;19.088;2023-06-26T02:39:50;2.30;;;2.10;;
78563;SDS011;67856;47.754;19.088;2023-06-26T02:42:52;2.15;;;1.95;;
78563;SDS011;67856;47.754;19.088;2023-06-26T02:45:55;3.42;;;3.03;;
78563;SDS011;67856;47.754;19.088;2023-06-26T02:48:57;3.03;;;2.30;;
78563;SDS011;67856;47.754;19.088;2023-06-26T02:52:01;2.83;;;2.33;;
78563;SDS011;67856;47.754;19.088;2023-06-26T02:55:04;2.58;;;2.38;;
78563;SDS011;67856;47.754;19.088;2023-06-26T02:58:07;2.72;;;2.08;;
78563;SDS011;67856;47.754;19.088;2023-06-26T03:01:11;2.33;;;2.13;;
78563;SDS011;67856;47.754;19.088;2023-06-26T03:04:16;2.20;;;2.00;;
78563;SDS011;67856;47.754;19.088;2023-06-26T03:07:20;2.33;;;2.13;;
78563;SDS011;67856;47.754;19.088;2023-06-26T03:10:23;2.70;;;2.20;;
78563;SDS011;67856;47.754;19.088;2023-06-26T03:13:25;2.47;;;2.28;;
78563;SDS011;67856;47.754;19.088;2023-06-26T03:16:28;2.33;;;2.13;;
78563;SDS011;67856;47.754;19.088;2023-06-26T03:19:30;2.93;;;2.50;;
78563;SDS011;67856;47.754;19.088;2023-06-26T03:22:59;2.60;;;2.40;;
78563;SDS011;67856;47.754;19.088;2023-06-26T03:26:02;2.17;;;1.98;;
78563;SDS011;67856;47.754;19.088;2023-06-26T03:29:08;2.13;;;1.92;;
78563;SDS011;67856;47.754;19.088;2023-06-26T03:32:11;2.33;;;2.13;;
78563;SDS011;67856;47.754;19.088;2023-06-26T03:35:13;2.10;;;1.77;;
78563;SDS011;67856;47.754;19.088;2023-06-26T03:38:16;2.10;;;1.90;;
78563;SDS011;67856;47.754;19.088;2023-06-26T03:41:20;2.00;;;1.80;;
78563;SDS011;67856;47.754;19.088;2023-06-26T03:44:23;2.30;;;2.10;;
78563;SDS011;67856;47.754;19.088;2023-06-26T03:47:25;2.15;;;1.95;;
78563;SDS011;67856;47.754;19.088;2023-06-26T03:50:28;2.10;;;1.90;;
78563;SDS011;67856;47.754;19.088;2023-06-26T03:53:31;1.93;;;1.70;;
78563;SDS011;67856;47.754;19.088;2023-06-26T03:56:34;2.40;;;2.20;;
78563;SDS011;67856;47.754;19.088;2023-06-26T03:59:36;2.30;;;2.10;;
78563;SDS011;67856;47.754;19.088;2023-06-26T04:02:39;2.35;;;2.13;;
78563;SDS011;67856;47.754;19.088;2023-06-26T04:05:42;2.30;;;2.10;;
78563;SDS011;67856;47.754;19.088;2023-06-26T04:08:44;1.93;;;1.77;;
78563;SDS011;67856;47.754;19.088;2023-06-26T04:11:47;2.28;;;1.90;;
78563;SDS011;67856;47.754;19.088;2023-06-26T04:14:51;2.30;;;2.10;;
78563;SDS011;67856;47.754;19.088;2023-06-26T04:17:53;2.53;;;2.20;;
78563;SDS011;67856;47.754;19.088;2023-06-26T04:21:12;1.77;;;1.67;;
78563;SDS011;67856;47.754;19.088;2023-06-26T04:24:15;2.30;;;2.10;;
78563;SDS011;67856;47.754;19.088;2023-06-26T04:27:17;2.70;;;2.50;;
78563;SDS011;67856;47.754;19.088;2023-06-26T04:30:20;1.77;;;1.60;;
78563;SDS011;67856;47.754;19.088;2023-06-26T04:33:22;1.88;;;1.77;;
78563;SDS011;67856;47.754;19.088;2023-06-26T04:36:25;1.80;;;1.70;;
78563;SDS011;67856;47.754;19.088;2023-06-26T04:39:31;1.67;;;1.57;;
78563;SDS011;67856;47.754;19.088;2023-06-26T04:42:33;1.65;;;1.55;;
78563;SDS011;67856;47.754;19.088;2023-06-26T04:45:35;2.22;;;1.88;;
78563;SDS011;67856;47.754;19.088;2023-06-26T04:48:38;2.00;;;1.80;;
78563;SDS011;67856;47.754;19.088;2023-06-26T04:51:40;2.00;;;1.80;;
78563;SDS011;67856;47.754;19.088;2023-06-26T04:54:43;1.73;;;1.60;;
78563;SDS011;67856;47.754;19.088;2023-06-26T04:57:45;2.03;;;1.83;;
78563;SDS011;67856;47.754;19.088;2023-06-26T05:00:48;2.13;;;1.85;;
78563;SDS011;67856;47.754;19.088;2023-06-26T05:03:50;2.05;;;1.85;;
78563;SDS011;67856;47.754;19.088;2023-06-26T05:06:53;1.80;;;1.70;;
78563;SDS011;67856;47.754;19.088;2023-06-26T05:09:55;1.80;;;1.70;;
78563;SDS011;67856;47.754;19.088;2023-06-26T05:12:58;1.90;;;1.73;;
78563;SDS011;67856;47.754;19.088;2023-06-26T05:16:00;1.95;;;1.75;;
78563;SDS011;67856;47.754;19.088;2023-06-26T05:19:03;2.13;;;1.92;;
78563;SDS011;67856;47.754;19.088;2023-06-26T05:22:05;2.60;;;2.40;;
78563;SDS011;67856;47.754;19.088;2023-06-26T05:25:11;3.03;;;2.57;;
78563;SDS011;67856;47.754;19.088;2023-06-26T05:28:14;9.70;;;5.38;;
78563;SDS011;67856;47.754;19.088;2023-06-26T05:31:17;8.10;;;6.32;;
78563;SDS011;67856;47.754;19.088;2023-06-26T05:34:20;9.15;;;6.60;;
78563;SDS011;67856;47.754;19.088;2023-06-26T05:37:24;10.43;;;7.20;;
78563;SDS011;67856;47.754;19.088;2023-06-26T05:40:28;9.40;;;7.07;;
78563;SDS011;67856;47.754;19.088;2023-06-26T05:43:31;8.35;;;6.97;;
78563;SDS011;67856;47.754;19.088;2023-06-26T05:46:34;11.82;;;6.68;;
78563;SDS011;67856;47.754;19.088;2023-06-26T05:49:36;7.90;;;6.47;;
78563;SDS011;67856;47.754;19.088;2023-06-26T05:52:39;8.03;;;6.70;;
78563;SDS011;67856;47.754;19.088;2023-06-26T05:55:46;8.63;;;6.10;;
78563;SDS011;67856;47.754;19.088;2023-06-26T05:58:49;7.90;;;6.55;;
78563;SDS011;67856;47.754;19.088;2023-06-26T06:01:52;11.07;;;6.43;;
78563;SDS011;67856;47.754;19.088;2023-06-26T06:04:55;8.15;;;6.53;;
78563;SDS011;67856;47.754;19.088;2023-06-26T06:07:57;9.83;;;5.77;;
78563;SDS011;67856;47.754;19.088;2023-06-26T06:11:00;9.13;;;6.03;;
78563;SDS011;67856;47.754;19.088;2023-06-26T06:14:03;8.63;;;5.75;;
78563;SDS011;67856;47.754;19.088;2023-06-26T06:17:06;10.40;;;5.60;;
78563;SDS011;67856;47.754;19.088;2023-06-26T06:20:09;9.15;;;5.53;;
78563;SDS011;67856;47.754;19.088;2023-06-26T06:23:11;7.60;;;5.50;;
78563;SDS011;67856;47.754;19.088;2023-06-26T06:26:14;7.47;;;5.73;;
78563;SDS011;67856;47.754;19.088;2023-06-26T06:29:16;9.10;;;5.80;;
78563;SDS011;67856;47.754;19.088;2023-06-26T06:32:21;10.00;;;6.10;;
78563;SDS011;67856;47.754;19.088;2023-06-26T06:35:23;8.15;;;5.32;;
78563;SDS011;67856;47.754;19.088;2023-06-26T06:38:30;7.97;;;5.40;;
78563;SDS011;67856;47.754;19.088;2023-06-26T06:41:33;9.33;;;5.80;;
78563;SDS011;67856;47.754;19.088;2023-06-26T06:44:40;10.75;;;5.63;;
78563;SDS011;67856;47.754;19.088;2023-06-26T06:47:43;7.88;;;5.53;;
78563;SDS011;67856;47.754;19.088;2023-06-26T06:50:45;7.35;;;5.75;;
78563;SDS011;67856;47.754;19.088;2023-06-26T06:53:48;9.03;;;5.83;;
78563;SDS011;67856;47.754;19.088;2023-06-26T06:56:50;8.20;;;5.70;;
78563;SDS011;67856;47.754;19.088;2023-06-26T06:59:53;9.80;;;6.00;;
78563;SDS011;67856;47.754;19.088;2023-06-26T07:02:55;9.18;;;6.05;;
78563;SDS011;67856;47.754;19.088;2023-06-26T07:05:58;14.38;;;6.45;;
78563;SDS011;67856;47.754;19.088;2023-06-26T07:09:02;16.38;;;6.75;;
78563;SDS011;67856;47.754;19.088;2023-06-26T07:12:05;33.80;;;7.80;;
78563;SDS011;67856;47.754;19.088;2023-06-26T07:15:07;10.80;;;6.60;;
78563;SDS011;67856;47.754;19.088;2023-06-26T07:18:10;8.05;;;5.97;;
78563;SDS011;67856;47.754;19.088;2023-06-26T07:21:13;10.80;;;6.18;;
78563;SDS011;67856;47.754;19.088;2023-06-26T07:24:15;8.50;;;6.03;;
78563;SDS011;67856;47.754;19.088;2023-06-26T07:27:18;9.47;;;6.40;;
78563;SDS011;67856;47.754;19.088;2023-06-26T07:30:22;10.80;;;6.63;;
78563;SDS011;67856;47.754;19.088;2023-06-26T07:33:26;6.97;;;5.90;;
78563;SDS011;67856;47.754;19.088;2023-06-26T07:36:28;8.27;;;5.90;;
78563;SDS011;67856;47.754;19.088;2023-06-26T07:39:31;8.20;;;6.03;;
78563;SDS011;67856;47.754;19.088;2023-06-26T07:42:33;9.33;;;6.10;;
78563;SDS011;67856;47.754;19.088;2023-06-26T07:45:36;7.28;;;6.05;;
78563;SDS011;67856;47.754;19.088;2023-06-26T07:48:38;8.70;;;6.10;;
78563;SDS011;67856;47.754;19.088;2023-06-26T07:51:57;8.07;;;6.07;;
78563;SDS011;67856;47.754;19.088;2023-06-26T07:55:00;8.37;;;6.50;;
78563;SDS011;67856;47.754;19.088;2023-06-26T07:58:03;8.10;;;6.53;;
78563;SDS011;67856;47.754;19.088;2023-06-26T08:01:08;11.30;;;6.50;;
78563;SDS011;67856;47.754;19.088;2023-06-26T08:04:27;11.45;;;6.72;;
78563;SDS011;67856;47.754;19.088;2023-06-26T08:07:32;8.68;;;6.18;;
78563;SDS011;67856;47.754;19.088;2023-06-26T08:10:44;9.17;;;6.40;;
78563;SDS011;67856;47.754;19.088;2023-06-26T08:13:46;9.13;;;6.80;;
78563;SDS011;67856;47.754;19.088;2023-06-26T08:16:50;10.35;;;6.47;;
78563;SDS011;67856;47.754;19.088;2023-06-26T08:19:52;10.88;;;6.20;;
78563;SDS011;67856;47.754;19.088;2023-06-26T08:22:55;9.30;;;6.60;;
78563;SDS011;67856;47.754;19.088;2023-06-26T08:25:57;7.10;;;6.17;;
78563;SDS011;67856;47.754;19.088;2023-06-26T08:29:00;8.43;;;6.37;;
78563;SDS011;67856;47.754;19.088;2023-06-26T08:32:13;8.45;;;6.03;;
78563;SDS011;67856;47.754;19.088;2023-06-26T08:35:15;9.07;;;6.30;;
78563;SDS011;67856;47.754;19.088;2023-06-26T08:38:18;8.30;;;6.10;;
78563;SDS011;67856;47.754;19.088;2023-06-26T08:41:23;9.50;;;6.35;;
78563;SDS011;67856;47.754;19.088;2023-06-26T08:44:26;9.20;;;6.30;;
78563;SDS011;67856;47.754;19.088;2023-06-26T08:47:29;8.07;;;6.32;;
78563;SDS011;67856;47.754;19.088;2023-06-26T08:50:33;8.32;;;6.43;;
78563;SDS011;67856;47.754;19.088;2023-06-26T08:53:43;6.68;;;5.78;;
78563;SDS011;67856;47.754;19.088;2023-06-26T08:56:52;9.43;;;6.10;;
78563;SDS011;67856;47.754;19.088;2023-06-26T08:59:55;9.90;;;6.17;;
78563;SDS011;67856;47.754;19.088;2023-06-26T09:02:57;9.18;;;6.10;;
78563;SDS011;67856;47.754;19.088;2023-06-26T09:06:00;11.52;;;6.32;;
78563;SDS011;67856;47.754;19.088;2023-06-26T09:09:02;9.18;;;6.03;;
78563;SDS011;67856;47.754;19.088;2023-06-26T09:12:05;10.73;;;6.33;;
78563;SDS011;67856;47.754;19.088;2023-06-26T09:15:08;7.93;;;5.90;;
78563;SDS011;67856;47.754;19.088;2023-06-26T09:18:11;8.68;;;5.90;;
78563;SDS011;67856;47.754;19.088;2023-06-26T09:21:16;8.80;;;6.05;;
78563;SDS011;67856;47.754;19.088;2023-06-26T09:24:19;8.10;;;5.95;;
78563;SDS011;67856;47.754;19.088;2023-06-26T09:27:21;11.20;;;6.73;;
78563;SDS011;67856;47.754;19.088;2023-06-26T09:30:24;8.47;;;6.27;;
78563;SDS011;67856;47.754;19.088;2023-06-26T09:33:27;7.03;;;6.18;;
78563;SDS011;67856;47.754;19.088;2023-06-26T09:36:30;8.80;;;6.05;;
78563;SDS011;67856;47.754;19.088;2023-06-26T09:39:41;9.38;;;6.07;;
78563;SDS011;67856;47.754;19.088;2023-06-26T09:42:43;9.53;;;6.63;;
78563;SDS011;67856;47.754;19.088;2023-06-26T09:45:49;8.93;;;5.90;;
78563;SDS011;67856;47.754;19.088;2023-06-26T09:49:08;10.25;;;6.53;;
78563;SDS011;67856;47.754;19.088;2023-06-26T09:52:15;8.00;;;6.00;;
78563;SDS011;67856;47.754;19.088;2023-06-26T09:55:19;9.38;;;6.57;;
78563;SDS011;67856;47.754;19.088;2023-06-26T09:58:23;7.40;;;6.17;;
78563;SDS011;67856;47.754;19.088;2023-06-26T10:01:26;9.40;;;6.70;;
78563;SDS011;67856;47.754;19.088;2023-06-26T10:04:29;11.18;;;6.55;;
78563;SDS011;67856;47.754;19.088;2023-06-26T10:07:32;9.95;;;6.65;;
78563;SDS011;67856;47.754;19.088;2023-06-26T10:10:36;9.38;;;6.10;;
78563;SDS011;67856;47.754;19.088;2023-06-26T10:13:42;8.03;;;6.40;;
78563;SDS011;67856;47.754;19.088;2023-06-26T10:16:48;11.33;;;6.20;;
78563;SDS011;67856;47.754;19.088;2023-06-26T10:19:51;14.65;;;6.88;;
78563;SDS011;67856;47.754;19.088;2023-06-26T10:22:56;9.00;;;6.07;;
78563;SDS011;67856;47.754;19.088;2023-06-26T10:26:02;7.95;;;6.32;;
78563;SDS011;67856;47.754;19.088;2023-06-26T10:29:05;10.32;;;6.30;;
78563;SDS011;67856;47.754;19.088;2023-06-26T10:32:10;10.07;;;6.50;;
78563;SDS011;67856;47.754;19.088;2023-06-26T10:35:14;11.45;;;6.40;;
78563;SDS011;67856;47.754;19.088;2023-06-26T10:38:17;12.02;;;6.07;;
78563;SDS011;67856;47.754;19.088;2023-06-26T10:41:23;9.13;;;6.25;;
78563;SDS011;67856;47.754;19.088;2023-06-26T10:44:27;8.70;;;6.40;;
78563;SDS011;67856;47.754;19.088;2023-06-26T10:47:30;11.20;;;6.23;;
78563;SDS011;67856;47.754;19.088;2023-06-26T10:50:39;9.43;;;6.40;;
78563;SDS011;67856;47.754;19.088;2023-06-26T10:53:42;6.82;;;5.90;;
78563;SDS011;67856;47.754;19.088;2023-06-26T10:56:48;7.18;;;5.93;;
78563;SDS011;67856;47.754;19.088;2023-06-26T11:00:11;9.37;;;6.00;;
78563;SDS011;67856;47.754;19.088;2023-06-26T11:03:22;8.57;;;6.50;;
78563;SDS011;67856;47.754;19.088;2023-06-26T11:06:25;10.20;;;6.38;;
78563;SDS011;67856;47.754;19.088;2023-06-26T11:09:28;9.20;;;6.18;;
78563;SDS011;67856;47.754;19.088;2023-06-26T11:12:34;10.30;;;6.38;;
78563;SDS011;67856;47.754;19.088;2023-06-26T11:15:42;8.03;;;6.37;;
78563;SDS011;67856;47.754;19.088;2023-06-26T11:18:45;9.93;;;6.03;;
78563;SDS011;67856;47.754;19.088;2023-06-26T11:21:48;11.50;;;6.53;;
78563;SDS011;67856;47.754;19.088;2023-06-26T11:24:52;11.13;;;5.82;;
78563;SDS011;67856;47.754;19.088;2023-06-26T11:27:55;7.60;;;5.80;;
78563;SDS011;67856;47.754;19.088;2023-06-26T11:30:58;11.73;;;6.33;;
78563;SDS011;67856;47.754;19.088;2023-06-26T11:34:02;9.33;;;6.50;;
78563;SDS011;67856;47.754;19.088;2023-06-26T11:37:06;8.75;;;6.20;;
78563;SDS011;67856;47.754;19.088;2023-06-26T11:40:21;7.57;;;6.15;;
78563;SDS011;67856;47.754;19.088;2023-06-26T11:43:24;8.32;;;6.20;;
78563;SDS011;67856;47.754;19.088;2023-06-26T11:46:26;7.75;;;5.97;;
78563;SDS011;67856;47.754;19.088;2023-06-26T11:49:29;9.03;;;6.30;;
78563;SDS011;67856;47.754;19.088;2023-06-26T11:52:34;10.02;;;6.05;;
78563;SDS011;67856;47.754;19.088;2023-06-26T11:55:41;7.55;;;6.28;;
78563;SDS011;67856;47.754;19.088;2023-06-26T11:59:04;9.15;;;6.22;;
78563;SDS011;67856;47.754;19.088;2023-06-26T12:02:13;11.55;;;6.40;;
78563;SDS011;67856;47.754;19.088;2023-06-26T12:05:16;9.03;;;6.17;;
78563;SDS011;67856;47.754;19.088;2023-06-26T12:08:19;8.50;;;6.10;;
78563;SDS011;67856;47.754;19.088;2023-06-26T12:11:22;8.00;;;6.20;;
78563;SDS011;67856;47.754;19.088;2023-06-26T12:14:25;10.05;;;5.95;;
78563;SDS011;67856;47.754;19.088;2023-06-26T12:17:30;11.87;;;6.20;;
78563;SDS011;67856;47.754;19.088;2023-06-26T12:20:33;9.27;;;5.80;;
78563;SDS011;67856;47.754;19.088;2023-06-26T12:23:39;10.52;;;6.50;;
78563;SDS011;67856;47.754;19.088;2023-06-26T12:26:42;11.93;;;6.22;;
78563;SDS011;67856;47.754;19.088;2023-06-26T12:29:50;11.73;;;6.00;;
78563;SDS011;67856;47.754;19.088;2023-06-26T12:32:54;9.87;;;5.93;;
78563;SDS011;67856;47.754;19.088;2023-06-26T12:35:57;11.77;;;5.77;;
78563;SDS011;67856;47.754;19.088;2023-06-26T12:39:00;8.20;;;6.10;;
78563;SDS011;67856;47.754;19.088;2023-06-26T12:42:03;9.75;;;5.70;;
78563;SDS011;67856;47.754;19.088;2023-06-26T12:45:14;9.45;;;6.13;;
78563;SDS011;67856;47.754;19.088;2023-06-26T12:48:40;8.07;;;5.73;;
78563;SDS011;67856;47.754;19.088;2023-06-26T12:51:48;12.80;;;6.27;;
78563;SDS011;67856;47.754;19.088;2023-06-26T12:54:51;10.15;;;5.93;;
78563;SDS011;67856;47.754;19.088;2023-06-26T12:57:55;7.97;;;5.55;;
78563;SDS011;67856;47.754;19.088;2023-06-26T13:00:57;10.50;;;5.78;;
78563;SDS011;67856;47.754;19.088;2023-06-26T13:04:00;7.80;;;5.90;;
78563;SDS011;67856;47.754;19.088;2023-06-26T13:07:03;7.50;;;5.47;;
78563;SDS011;67856;47.754;19.088;2023-06-26T13:10:06;11.45;;;6.10;;
78563;SDS011;67856;47.754;19.088;2023-06-26T13:13:09;8.20;;;5.68;;
78563;SDS011;67856;47.754;19.088;2023-06-26T13:16:12;7.55;;;5.80;;
78563;SDS011;67856;47.754;19.088;2023-06-26T13:19:15;10.13;;;5.43;;
78563;SDS011;67856;47.754;19.088;2023-06-26T13:22:18;8.97;;;5.37;;
78563;SDS011;67856;47.754;19.088;2023-06-26T13:25:21;8.05;;;5.30;;
78563;SDS011;67856;47.754;19.088;2023-06-26T13:28:23;6.82;;;5.30;;
78563;SDS011;67856;47.754;19.088;2023-06-26T13:31:26;8.88;;;5.30;;
78563;SDS011;67856;47.754;19.088;2023-06-26T13:34:28;7.13;;;5.57;;
78563;SDS011;67856;47.754;19.088;2023-06-26T13:37:31;10.10;;;5.50;;
78563;SDS011;67856;47.754;19.088;2023-06-26T13:40:36;7.78;;;5.55;;
78563;SDS011;67856;47.754;19.088;2023-06-26T13:43:39;7.82;;;5.20;;
78563;SDS011;67856;47.754;19.088;2023-06-26T13:46:42;9.15;;;5.50;;
78563;SDS011;67856;47.754;19.088;2023-06-26T13:49:44;8.07;;;5.20;;
78563;SDS011;67856;47.754;19.088;2023-06-26T13:52:47;6.73;;;5.20;;
78563;SDS011;67856;47.754;19.088;2023-06-26T13:55:49;8.02;;;5.32;;
78563;SDS011;67856;47.754;19.088;2023-06-26T13:58:53;9.35;;;5.55;;
78563;SDS011;67856;47.754;19.088;2023-06-26T14:01:56;9.38;;;5.70;;
78563;SDS011;67856;47.754;19.088;2023-06-26T14:04:59;9.00;;;5.60;;
78563;SDS011;67856;47.754;19.088;2023-06-26T14:08:05;8.80;;;5.47;;
78563;SDS011;67856;47.754;19.088;2023-06-26T14:11:08;12.13;;;5.50;;
78563;SDS011;67856;47.754;19.088;2023-06-26T14:14:11;6.63;;;5.28;;
78563;SDS011;67856;47.754;19.088;2023-06-26T14:17:13;36.40;;;7.45;;
78563;SDS011;67856;47.754;19.088;2023-06-26T14:20:18;26.03;;;7.33;;
78563;SDS011;67856;47.754;19.088;2023-06-26T14:23:22;16.43;;;6.27;;
78563;SDS011;67856;47.754;19.088;2023-06-26T14:26:25;18.02;;;5.95;;
78563;SDS011;67856;47.754;19.088;2023-06-26T14:29:28;18.48;;;6.30;;
78563;SDS011;67856;47.754;19.088;2023-06-26T14:32:30;19.80;;;6.45;;
78563;SDS011;67856;47.754;19.088;2023-06-26T14:35:32;16.27;;;6.37;;
78563;SDS011;67856;47.754;19.088;2023-06-26T14:38:35;21.40;;;6.13;;
78563;SDS011;67856;47.754;19.088;2023-06-26T14:41:37;20.27;;;6.40;;
78563;SDS011;67856;47.754;19.088;2023-06-26T14:44:40;25.02;;;6.97;;
78563;SDS011;67856;47.754;19.088;2023-06-26T14:47:43;18.00;;;6.40;;
78563;SDS011;67856;47.754;19.088;2023-06-26T14:50:46;19.53;;;6.07;;
78563;SDS011;67856;47.754;19.088;2023-06-26T14:53:48;22.10;;;6.23;;
78563;SDS011;67856;47.754;19.088;2023-06-26T14:56:51;22.52;;;6.93;;
78563;SDS011;67856;47.754;19.088;2023-06-26T14:59:53;18.40;;;6.07;;
78563;SDS011;67856;47.754;19.088;2023-06-26T15:02:55;21.98;;;6.65;;
78563;SDS011;67856;47.754;19.088;2023-06-26T15:06:00;23.60;;;6.70;;
78563;SDS011;67856;47.754;19.088;2023-06-26T15:09:03;20.77;;;6.47;;
78563;SDS011;67856;47.754;19.088;2023-06-26T15:12:05;17.15;;;6.45;;
78563;SDS011;67856;47.754;19.088;2023-06-26T15:15:08;21.00;;;6.22;;
78563;SDS011;67856;47.754;19.088;2023-06-26T15:18:11;22.70;;;6.50;;
78563;SDS011;67856;47.754;19.088;2023-06-26T15:21:14;17.87;;;6.30;;
78563;SDS011;67856;47.754;19.088;2023-06-26T15:24:16;18.47;;;6.67;;
78563;SDS011;67856;47.754;19.088;2023-06-26T15:27:19;23.58;;;6.35;;
78563;SDS011;67856;47.754;19.088;2023-06-26T15:30:24;21.70;;;6.40;;
78563;SDS011;67856;47.754;19.088;2023-06-26T15:33:27;21.73;;;6.32;;
78563;SDS011;67856;47.754;19.088;2023-06-26T15:36:29;18.17;;;5.97;;
78563;SDS011;67856;47.754;19.088;2023-06-26T15:39:32;19.20;;;6.27;;
78563;SDS011;67856;47.754;19.088;2023-06-26T15:42:44;17.05;;;6.35;;
78563;SDS011;67856;47.754;19.088;2023-06-26T15:45:47;17.83;;;6.38;;
78563;SDS011;67856;47.754;19.088;2023-06-26T15:48:50;20.48;;;5.93;;
78563;SDS011;67856;47.754;19.088;2023-06-26T15:51:52;18.23;;;6.20;;
78563;SDS011;67856;47.754;19.088;2023-06-26T15:54:54;20.03;;;5.80;;
78563;SDS011;67856;47.754;19.088;2023-06-26T15:57:57;19.73;;;5.65;;
78563;SDS011;67856;47.754;19.088;2023-06-26T16:00:59;18.05;;;6.00;;
78563;SDS011;67856;47.754;19.088;2023-06-26T16:04:02;19.73;;;6.07;;
78563;SDS011;67856;47.754;19.088;2023-06-26T16:07:05;14.52;;;5.93;;
78563;SDS011;67856;47.754;19.088;2023-06-26T16:10:08;16.67;;;5.97;;
78563;SDS011;67856;47.754;19.088;2023-06-26T16:13:10;14.93;;;6.00;;
78563;SDS011;67856;47.754;19.088;2023-06-26T16:16:13;14.25;;;6.00;;
78563;SDS011;67856;47.754;19.088;2023-06-26T16:19:16;16.30;;;5.85;;
78563;SDS011;67856;47.754;19.088;2023-06-26T16:22:18;17.83;;;5.70;;
78563;SDS011;67856;47.754;19.088;2023-06-26T16:25:21;18.33;;;6.00;;
78563;SDS011;67856;47.754;19.088;2023-06-26T16:28:23;13.60;;;5.65;;
78563;SDS011;67856;47.754;19.088;2023-06-26T16:31:26;14.65;;;5.88;;
78563;SDS011;67856;47.754;19.088;2023-06-26T16:34:28;17.73;;;6.00;;
78563;SDS011;67856;47.754;19.088;2023-06-26T16:37:31;13.30;;;5.70;;
78563;SDS011;67856;47.754;19.088;2023-06-26T16:40:33;10.90;;;5.50;;
78563;SDS011;67856;47.754;19.088;2023-06-26T16:43:36;14.52;;;5.45;;
78563;SDS011;67856;47.754;19.088;2023-06-26T16:46:38;12.75;;;5.65;;
78563;SDS011;67856;47.754;19.088;2023-06-26T16:49:41;13.32;;;5.63;;
78563;SDS011;67856;47.754;19.088;2023-06-26T16:52:44;13.60;;;5.43;;
78563;SDS011;67856;47.754;19.088;2023-06-26T16:55:47;12.90;;;5.57;;
78563;SDS011;67856;47.754;19.088;2023-06-26T16:58:50;13.07;;;5.43;;
78563;SDS011;67856;47.754;19.088;2023-06-26T17:01:52;12.13;;;5.40;;
78563;SDS011;67856;47.754;19.088;2023-06-26T17:04:56;15.48;;;5.38;;
78563;SDS011;67856;47.754;19.088;2023-06-26T17:07:59;11.83;;;5.20;;
78563;SDS011;67856;47.754;19.088;2023-06-26T17:11:01;12.07;;;5.73;;
78563;SDS011;67856;47.754;19.088;2023-06-26T17:14:04;10.23;;;5.50;;
78563;SDS011;67856;47.754;19.088;2023-06-26T17:17:06;11.52;;;5.70;;
78563;SDS011;67856;47.754;19.088;2023-06-26T17:20:09;14.20;;;5.70;;
78563;SDS011;67856;47.754;19.088;2023-06-26T17:23:12;15.17;;;5.67;;
78563;SDS011;67856;47.754;19.088;2023-06-26T17:26:14;10.93;;;5.33;;
78563;SDS011;67856;47.754;19.088;2023-06-26T17:29:17;12.15;;;5.60;;
78563;SDS011;67856;47.754;19.088;2023-06-26T17:32:19;11.68;;;5.32;;
78563;SDS011;67856;47.754;19.088;2023-06-26T17:35:23;15.32;;;5.78;;
78563;SDS011;67856;47.754;19.088;2023-06-26T17:38:26;10.97;;;5.27;;
78563;SDS011;67856;47.754;19.088;2023-06-26T17:41:29;12.63;;;5.70;;
78563;SDS011;67856;47.754;19.088;2023-06-26T17:44:31;11.38;;;5.85;;
78563;SDS011;67856;47.754;19.088;2023-06-26T17:47:34;15.60;;;5.45;;
78563;SDS011;67856;47.754;19.088;2023-06-26T17:50:37;12.82;;;5.25;;
78563;SDS011;67856;47.754;19.088;2023-06-26T17:53:40;13.33;;;5.60;;
78563;SDS011;67856;47.754;19.088;2023-06-26T17:56:42;10.47;;;5.13;;
78563;SDS011;67856;47.754;19.088;2023-06-26T17:59:48;10.57;;;5.20;;
78563;SDS011;67856;47.754;19.088;2023-06-26T18:02:50;10.75;;;4.93;;
78563;SDS011;67856;47.754;19.088;2023-06-26T18:05:53;10.70;;;4.80;;
78563;SDS011;67856;47.754;19.088;2023-06-26T18:08:55;10.97;;;5.10;;